Time;durP1;ratioP1;P1;durP2;ratioP2;P2;SDS_P1;SDS_P2;PMS_P1;PMS_P2;Temp;Humidity;BMP_temperature;BMP_pressure;BME280_temperature;BME280_humidity;BME280_pressure;Samples;Min_cycle;Max_cycle;Signal;HPM_P1;HPM_P2
2023/07/03 00:00:17;;;;;;;13.43;8.30;;;;;;;;;;5045457;28;20231;-28
2023/07/03 00:02:49;;;;;;;15.40;8.87;;;;;;;;;;5039866;28;20220;-27
2023/07/03 00:05:17;;;;;;;14.20;8.63;;;;;;;;;;5038682;28;20217;-25
2023/07/03 00:07:46;;;;;;;19.77;9.80;;;;;;;;;;5041293;28;20226;-23
2023/07/03 00:10:14;;;;;;;15.20;9.57;;;;;;;;;;5035513;28;20234;-28
2023/07/03 00:12:41;;;;;;;14.50;9.20;;;;;;;;;;5036206;28;20224;-27
2023/07/03 00:15:08;;;;;;;14.77;8.90;;;;;;;;;;5043729;28;20221;-26
2023/07/03 00:17:38;;;;;;;15.17;9.10;;;;;;;;;;5037493;28;20214;-27
2023/07/03 00:20:06;;;;;;;14.23;9.37;;;;;;;;;;5034146;28;20477;-25
2023/07/03 00:22:33;;;;;;;15.73;9.30;;;;;;;;;;5041264;28;20274;-26
2023/07/03 00:25:00;;;;;;;14.53;8.47;;;;;;;;;;5037826;28;20224;-26
2023/07/03 00:27:27;;;;;;;14.33;9.40;;;;;;;;;;5036176;28;20204;-25
2023/07/03 00:29:54;;;;;;;17.10;9.03;;;;;;;;;;5044929;28;20205;-25
2023/07/03 00:32:21;;;;;;;16.33;9.23;;;;;;;;;;5037041;28;20202;-26
2023/07/03 00:34:50;;;;;;;15.43;9.20;;;;;;;;;;5030050;28;20209;-25
2023/07/03 00:44:57;;;;;;;15.07;8.17;;;;;;;;;;5045018;28;20220;-28
2023/07/03 00:47:25;;;;;;;15.60;8.90;;;;;;;;;;5046985;28;20215;-28
2023/07/03 00:49:53;;;;;;;14.77;8.77;;;;;;;;;;5019775;28;20210;-29
2023/07/03 00:52:22;;;;;;;13.20;8.47;;;;;;;;;;5018832;28;20229;-28
2023/07/03 00:54:49;;;;;;;14.03;8.73;;;;;;;;;;5018201;28;20629;-30
2023/07/03 00:57:17;;;;;;;12.63;7.57;;;;;;;;;;5023407;28;20228;-30
2023/07/03 00:59:44;;;;;;;13.50;8.07;;;;;;;;;;5022520;28;20206;-29
2023/07/03 01:02:13;;;;;;;13.00;8.03;;;;;;;;;;5023107;28;20220;-30
2023/07/03 01:04:42;;;;;;;14.07;7.87;;;;;;;;;;5013570;28;20210;-28
2023/07/03 01:07:13;;;;;;;11.80;7.87;;;;;;;;;;5030985;28;20209;-30
2023/07/03 01:09:43;;;;;;;15.30;8.67;;;;;;;;;;5028369;28;20232;-31
2023/07/03 01:12:10;;;;;;;13.40;8.67;;;;;;;;;;5018897;28;20229;-29
2023/07/03 01:14:39;;;;;;;12.90;7.93;;;;;;;;;;5009569;28;20210;-31
2023/07/03 01:17:09;;;;;;;17.40;9.30;;;;;;;;;;5009103;28;20233;-29
2023/07/03 01:19:38;;;;;;;15.53;8.80;;;;;;;;;;5012604;28;20227;-29
2023/07/03 01:22:08;;;;;;;14.43;8.93;;;;;;;;;;5016595;28;20208;-30
2023/07/03 01:24:40;;;;;;;13.33;8.13;;;;;;;;;;5003746;28;20201;-28
2023/07/03 01:27:08;;;;;;;12.10;8.60;;;;;;;;;;5021963;28;20206;-30
2023/07/03 01:29:36;;;;;;;13.87;7.57;;;;;;;;;;5029114;28;20237;-30
2023/07/03 01:32:04;;;;;;;12.47;8.90;;;;;;;;;;5027060;28;20212;-26
2023/07/03 01:34:32;;;;;;;13.60;8.83;;;;;;;;;;5021875;28;20212;-30
2023/07/03 01:37:00;;;;;;;18.77;8.23;;;;;;;;;;5020620;28;20221;-32
2023/07/03 01:39:27;;;;;;;15.20;9.03;;;;;;;;;;5017223;28;20236;-27
2023/07/03 01:41:56;;;;;;;20.23;9.10;;;;;;;;;;5024528;28;20209;-30
2023/07/03 01:44:23;;;;;;;13.17;8.17;;;;;;;;;;5062162;28;20217;-30
2023/07/03 01:46:50;;;;;;;14.07;8.57;;;;;;;;;;5072079;28;20209;-30
2023/07/03 01:49:18;;;;;;;13.57;8.87;;;;;;;;;;5069004;28;20228;-29
2023/07/03 01:51:49;;;;;;;16.17;9.13;;;;;;;;;;5067170;28;20211;-31
2023/07/03 01:54:25;;;;;;;14.20;9.00;;;;;;;;;;5057835;28;20209;-27
2023/07/03 01:56:52;;;;;;;15.37;8.47;;;;;;;;;;5054681;28;20590;-31
2023/07/03 01:59:24;;;;;;;15.13;9.07;;;;;;;;;;5060423;28;20226;-28
2023/07/03 02:01:55;;;;;;;12.50;8.03;;;;;;;;;;5051347;28;20452;-29
2023/07/03 02:04:26;;;;;;;12.03;7.63;;;;;;;;;;5061274;28;20212;-28
2023/07/03 02:06:53;;;;;;;14.83;8.63;;;;;;;;;;5063759;28;20199;-31
2023/07/03 02:09:21;;;;;;;14.60;8.47;;;;;;;;;;5069627;28;20224;-29
2023/07/03 02:11:48;;;;;;;15.27;8.67;;;;;;;;;;5071779;28;20203;-30
2023/07/03 02:14:15;;;;;;;14.90;8.53;;;;;;;;;;5072484;28;20201;-29
2023/07/03 02:19:47;;;;;;;15.30;9.20;;;;;;;;;;5054547;28;20696;-27
2023/07/03 02:22:14;;;;;;;13.63;8.70;;;;;;;;;;5060139;28;20215;-31
2023/07/03 02:24:42;;;;;;;13.20;8.40;;;;;;;;;;5060844;28;20206;-27
2023/07/03 02:27:09;;;;;;;14.27;8.70;;;;;;;;;;5063444;28;20265;-28
2023/07/03 02:29:36;;;;;;;19.07;9.33;;;;;;;;;;5071914;28;20220;-30
2023/07/03 02:32:03;;;;;;;13.33;9.43;;;;;;;;;;5068746;28;20214;-29
2023/07/03 02:34:32;;;;;;;19.10;9.53;;;;;;;;;;5066950;28;20207;-29
2023/07/03 02:37:00;;;;;;;16.27;9.20;;;;;;;;;;5063124;28;20223;-30
2023/07/03 02:39:27;;;;;;;15.13;8.53;;;;;;;;;;5066492;28;20233;-30
2023/07/03 02:41:55;;;;;;;15.83;8.27;;;;;;;;;;5067503;28;20224;-31
2023/07/03 02:44:22;;;;;;;19.30;9.00;;;;;;;;;;5053902;28;20213;-30
2023/07/03 02:46:49;;;;;;;13.77;8.33;;;;;;;;;;5051690;28;20208;-31
2023/07/03 02:49:16;;;;;;;13.30;8.97;;;;;;;;;;5051297;28;20292;-28
2023/07/03 02:51:43;;;;;;;14.93;8.03;;;;;;;;;;5067013;28;20218;-27
2023/07/03 02:54:12;;;;;;;12.83;8.13;;;;;;;;;;5051139;28;20206;-29
2023/07/03 02:56:39;;;;;;;16.27;8.93;;;;;;;;;;5063487;28;20222;-27
2023/07/03 02:59:06;;;;;;;13.60;8.53;;;;;;;;;;5051707;28;20226;-30
2023/07/03 03:01:33;;;;;;;14.90;8.97;;;;;;;;;;5051756;28;20213;-29
2023/07/03 03:04:00;;;;;;;13.80;8.23;;;;;;;;;;5053303;28;20208;-29
2023/07/03 03:06:27;;;;;;;11.90;8.50;;;;;;;;;;5058912;28;20294;-28
2023/07/03 03:08:54;;;;;;;14.77;8.70;;;;;;;;;;5063295;28;20217;-30
2023/07/03 03:11:23;;;;;;;15.53;9.30;;;;;;;;;;5056052;28;20795;-29
2023/07/03 03:13:50;;;;;;;12.43;8.60;;;;;;;;;;5065150;28;20199;-28
2023/07/03 03:16:17;;;;;;;9.80;7.83;;;;;;;;;;5073340;28;20231;-27
2023/07/03 03:18:44;;;;;;;17.27;8.83;;;;;;;;;;5063054;28;20232;-28
2023/07/03 03:21:11;;;;;;;12.87;8.70;;;;;;;;;;5061985;28;20440;-30
2023/07/03 03:23:38;;;;;;;12.93;8.27;;;;;;;;;;5072352;28;20204;-30
2023/07/03 03:26:06;;;;;;;14.87;7.73;;;;;;;;;;5065372;28;20799;-30
2023/07/03 03:28:35;;;;;;;12.30;8.20;;;;;;;;;;5059390;28;20636;-27
2023/07/03 03:31:02;;;;;;;12.37;8.40;;;;;;;;;;5051107;28;20209;-27
2023/07/03 03:33:29;;;;;;;12.03;8.40;;;;;;;;;;5051591;28;20208;-27
2023/07/03 03:35:56;;;;;;;12.03;8.13;;;;;;;;;;5058203;28;20218;-31
2023/07/03 03:38:23;;;;;;;12.47;8.33;;;;;;;;;;5053595;28;20239;-31
2023/07/03 03:40:55;;;;;;;13.90;7.97;;;;;;;;;;5054129;28;20688;-29
2023/07/03 03:43:22;;;;;;;12.97;8.73;;;;;;;;;;5063916;28;20217;-30
2023/07/03 03:45:56;;;;;;;14.30;8.97;;;;;;;;;;5053313;28;20212;-29
2023/07/03 03:48:23;;;;;;;15.33;9.33;;;;;;;;;;5053288;28;20596;-28
2023/07/03 03:50:50;;;;;;;14.23;8.23;;;;;;;;;;5065259;28;20202;-30
2023/07/03 03:53:17;;;;;;;13.43;8.77;;;;;;;;;;5059315;28;20215;-29
2023/07/03 03:55:45;;;;;;;14.43;9.03;;;;;;;;;;5058617;28;20207;-30
2023/07/03 03:58:12;;;;;;;16.07;9.43;;;;;;;;;;5069885;28;20711;-30
2023/07/03 04:00:39;;;;;;;14.63;9.20;;;;;;;;;;5050291;28;20206;-29
2023/07/03 04:03:07;;;;;;;14.07;8.90;;;;;;;;;;5051294;28;20223;-30
2023/07/03 04:05:35;;;;;;;14.13;8.80;;;;;;;;;;5054798;28;20208;-27
2023/07/03 04:08:02;;;;;;;11.30;8.40;;;;;;;;;;5051937;28;20211;-29
2023/07/03 04:10:29;;;;;;;12.00;7.93;;;;;;;;;;5053042;28;20208;-29
2023/07/03 04:12:56;;;;;;;12.90;8.50;;;;;;;;;;5058376;28;20222;-28
2023/07/03 04:15:23;;;;;;;16.83;9.10;;;;;;;;;;5052705;28;20231;-27
2023/07/03 04:17:50;;;;;;;12.80;7.97;;;;;;;;;;5052036;28;20706;-30
2023/07/03 04:20:19;;;;;;;12.73;8.47;;;;;;;;;;5063280;28;20211;-29
2023/07/03 04:22:46;;;;;;;15.63;8.97;;;;;;;;;;5060924;28;20203;-28
2023/07/03 04:25:13;;;;;;;14.00;8.20;;;;;;;;;;5056456;28;20214;-27
2023/07/03 04:27:40;;;;;;;13.70;8.93;;;;;;;;;;5058487;28;20309;-28
2023/07/03 04:30:08;;;;;;;16.53;9.20;;;;;;;;;;5056181;28;20291;-28
2023/07/03 04:32:36;;;;;;;14.33;8.83;;;;;;;;;;5052773;28;20837;-26
2023/07/03 04:35:04;;;;;;;13.83;9.20;;;;;;;;;;5063847;28;20199;-28
2023/07/03 04:37:32;;;;;;;14.97;8.90;;;;;;;;;;5053529;28;20228;-30
2023/07/03 04:40:00;;;;;;;14.07;8.60;;;;;;;;;;5060111;28;20208;-29
2023/07/03 04:42:31;;;;;;;13.43;8.40;;;;;;;;;;5055570;28;20207;-27
2023/07/03 04:45:00;;;;;;;14.47;8.37;;;;;;;;;;5066719;28;20286;-29
2023/07/03 04:47:27;;;;;;;14.10;8.43;;;;;;;;;;5071693;28;20260;-27
2023/07/03 04:49:55;;;;;;;13.53;8.90;;;;;;;;;;5067093;28;20219;-26
2023/07/03 04:52:27;;;;;;;13.07;9.17;;;;;;;;;;5063292;28;20470;-30
2023/07/03 04:54:55;;;;;;;14.70;8.60;;;;;;;;;;5061218;28;20865;-27
2023/07/03 04:57:23;;;;;;;14.17;8.73;;;;;;;;;;5064306;28;20234;-30
2023/07/03 04:59:50;;;;;;;15.23;8.07;;;;;;;;;;5064950;28;20205;-29
2023/07/03 05:02:18;;;;;;;15.17;9.13;;;;;;;;;;5071775;28;20572;-28
2023/07/03 05:04:45;;;;;;;16.20;9.03;;;;;;;;;;5054024;28;20220;-31
2023/07/03 05:07:12;;;;;;;13.40;8.70;;;;;;;;;;5051476;28;20231;-28
2023/07/03 05:09:39;;;;;;;16.93;8.53;;;;;;;;;;5062312;28;20227;-29
2023/07/03 05:12:08;;;;;;;17.37;9.33;;;;;;;;;;5055642;28;20207;-31
2023/07/03 05:14:35;;;;;;;14.20;8.63;;;;;;;;;;5061092;28;20210;-26
2023/07/03 05:17:03;;;;;;;13.17;8.27;;;;;;;;;;5055232;28;20250;-29
2023/07/03 05:19:30;;;;;;;18.00;9.70;;;;;;;;;;5054775;28;20277;-28
2023/07/03 05:21:57;;;;;;;13.40;8.70;;;;;;;;;;5055441;28;20218;-30
2023/07/03 05:24:24;;;;;;;15.80;8.70;;;;;;;;;;5052946;28;20212;-29
2023/07/03 05:26:52;;;;;;;16.30;8.27;;;;;;;;;;5054555;28;20208;-28
2023/07/03 05:29:20;;;;;;;15.37;8.43;;;;;;;;;;5072826;28;20233;-27
2023/07/03 05:31:48;;;;;;;13.47;9.07;;;;;;;;;;5073153;28;20215;-29
2023/07/03 05:34:15;;;;;;;14.40;9.13;;;;;;;;;;5063702;28;20212;-27
2023/07/03 05:36:43;;;;;;;17.70;10.10;;;;;;;;;;5066671;28;20673;-32
2023/07/03 05:39:10;;;;;;;14.13;8.37;;;;;;;;;;5071622;28;20705;-30
2023/07/03 05:41:37;;;;;;;14.77;8.37;;;;;;;;;;5057766;28;20212;-30
2023/07/03 05:44:04;;;;;;;18.53;8.57;;;;;;;;;;5075125;28;20210;-27
2023/07/03 05:46:33;;;;;;;13.83;8.27;;;;;;;;;;5074829;28;20231;-29
2023/07/03 05:49:01;;;;;;;13.00;8.17;;;;;;;;;;5067214;28;20219;-30
2023/07/03 05:51:28;;;;;;;18.43;9.97;;;;;;;;;;5066910;28;20202;-28
2023/07/03 05:53:55;;;;;;;12.00;8.03;;;;;;;;;;5070531;28;20217;-29
2023/07/03 05:56:22;;;;;;;17.00;8.07;;;;;;;;;;5058209;28;20206;-27
2023/07/03 05:58:50;;;;;;;15.47;8.80;;;;;;;;;;5069927;28;20228;-28
2023/07/03 06:01:17;;;;;;;14.43;8.80;;;;;;;;;;5055217;28;20238;-28
2023/07/03 06:03:47;;;;;;;15.00;7.57;;;;;;;;;;5053983;28;20232;-28
2023/07/03 06:06:14;;;;;;;16.73;8.43;;;;;;;;;;5055756;28;20238;-29
2023/07/03 06:08:42;;;;;;;15.60;7.90;;;;;;;;;;5052993;28;20214;-32
2023/07/03 06:11:09;;;;;;;20.40;9.13;;;;;;;;;;5059103;28;20244;-30
2023/07/03 06:13:36;;;;;;;16.13;8.30;;;;;;;;;;5065315;28;20208;-31
2023/07/03 06:16:03;;;;;;;12.83;8.17;;;;;;;;;;5074170;28;20221;-28
2023/07/03 06:18:30;;;;;;;12.23;6.73;;;;;;;;;;5071708;28;20242;-28
2023/07/03 06:21:00;;;;;;;13.70;7.83;;;;;;;;;;5063084;28;20276;-26
2023/07/03 06:23:27;;;;;;;12.73;7.73;;;;;;;;;;5072025;28;20241;-29
2023/07/03 06:25:54;;;;;;;16.83;8.27;;;;;;;;;;5055569;28;20636;-29
2023/07/03 06:28:21;;;;;;;16.53;8.33;;;;;;;;;;5061451;28;20224;-28
2023/07/03 06:30:49;;;;;;;13.23;7.57;;;;;;;;;;5054252;28;20684;-27
2023/07/03 06:33:16;;;;;;;13.73;7.70;;;;;;;;;;5052654;28;20212;-28
2023/07/03 06:35:43;;;;;;;12.57;7.27;;;;;;;;;;5072492;28;20208;-29
2023/07/03 06:40:40;;;;;;;10.47;7.00;;;;;;;;;;5044515;28;20247;-24
2023/07/03 06:43:07;;;;;;;11.50;7.37;;;;;;;;;;5048635;28;20214;-24
2023/07/03 06:45:37;;;;;;;14.93;7.53;;;;;;;;;;5053684;28;20204;-25
2023/07/03 06:48:04;;;;;;;12.27;7.37;;;;;;;;;;5037752;28;20217;-27
2023/07/03 06:50:31;;;;;;;12.57;7.07;;;;;;;;;;5032255;28;20291;-24
2023/07/03 06:52:59;;;;;;;11.47;7.40;;;;;;;;;;5033264;28;20240;-26
2023/07/03 06:55:26;;;;;;;13.60;6.90;;;;;;;;;;5021939;28;20209;-25
2023/07/03 06:57:54;;;;;;;18.33;7.23;;;;;;;;;;5030300;28;20314;-27
2023/07/03 07:00:21;;;;;;;12.73;6.70;;;;;;;;;;5034879;28;20205;-24
2023/07/03 07:02:48;;;;;;;10.93;6.67;;;;;;;;;;5032640;28;20198;-27
2023/07/03 07:05:16;;;;;;;13.07;6.80;;;;;;;;;;5023586;28;20213;-26
2023/07/03 07:07:43;;;;;;;11.57;6.20;;;;;;;;;;5030458;28;20221;-28
2023/07/03 07:10:10;;;;;;;9.93;6.47;;;;;;;;;;5025328;28;20698;-26
2023/07/03 07:12:37;;;;;;;11.97;6.53;;;;;;;;;;5031143;28;20668;-27
2023/07/03 07:15:07;;;;;;;11.10;6.30;;;;;;;;;;5031507;28;20207;-27
2023/07/03 07:17:34;;;;;;;13.93;7.10;;;;;;;;;;5028292;28;20212;-27
2023/07/03 07:20:01;;;;;;;12.43;6.13;;;;;;;;;;5019897;28;20203;-27
2023/07/03 07:22:28;;;;;;;10.23;6.03;;;;;;;;;;5029370;28;20207;-26
2023/07/03 07:24:55;;;;;;;10.63;6.03;;;;;;;;;;5017181;28;20241;-25
2023/07/03 07:27:22;;;;;;;8.10;5.73;;;;;;;;;;5028116;28;20212;-25
2023/07/03 07:29:50;;;;;;;9.87;5.60;;;;;;;;;;5031722;28;20253;-24
2023/07/03 07:32:24;;;;;;;15.00;6.30;;;;;;;;;;5032731;28;20217;-24
2023/07/03 07:34:51;;;;;;;15.40;6.00;;;;;;;;;;5025884;28;20581;-25
2023/07/03 07:37:18;;;;;;;14.37;6.33;;;;;;;;;;5024229;28;20211;-24
2023/07/03 07:39:46;;;;;;;11.30;6.10;;;;;;;;;;5027848;28;20229;-28
2023/07/03 07:42:13;;;;;;;9.93;5.30;;;;;;;;;;5029858;28;20221;-26
2023/07/03 07:44:40;;;;;;;10.03;5.77;;;;;;;;;;5032898;28;20205;-25
2023/07/03 07:47:09;;;;;;;11.20;5.97;;;;;;;;;;5029224;28;20226;-27
2023/07/03 07:49:38;;;;;;;10.27;6.10;;;;;;;;;;5017790;28;20258;-27
2023/07/03 07:52:06;;;;;;;11.90;6.23;;;;;;;;;;5033156;28;20207;-27
2023/07/03 07:54:33;;;;;;;13.20;6.10;;;;;;;;;;5028202;28;20671;-25
2023/07/03 07:57:03;;;;;;;12.60;6.23;;;;;;;;;;5024816;28;20469;-24
2023/07/03 07:59:30;;;;;;;11.37;6.30;;;;;;;;;;5030071;28;20237;-25
2023/07/03 08:01:58;;;;;;;13.27;6.00;;;;;;;;;;5032912;28;20692;-25
2023/07/03 08:04:25;;;;;;;9.43;5.40;;;;;;;;;;5033139;28;20213;-27
2023/07/03 08:06:56;;;;;;;10.03;5.67;;;;;;;;;;5023667;28;20207;-27
2023/07/03 08:09:24;;;;;;;17.50;6.93;;;;;;;;;;5023616;28;20222;-25
2023/07/03 08:11:51;;;;;;;12.73;5.77;;;;;;;;;;5029112;28;20550;-25
2023/07/03 08:14:18;;;;;;;11.97;6.20;;;;;;;;;;5033569;28;20213;-25
2023/07/03 08:16:45;;;;;;;12.73;5.77;;;;;;;;;;5031453;28;20205;-27
2023/07/03 08:19:12;;;;;;;12.30;6.47;;;;;;;;;;5029002;28;20233;-26
2023/07/03 08:21:39;;;;;;;12.30;5.47;;;;;;;;;;5032910;28;20201;-30
2023/07/03 08:24:08;;;;;;;11.23;5.90;;;;;;;;;;5028932;28;20224;-25
2023/07/03 08:27:04;;;;;;;10.80;5.90;;;;;;;;;;5031061;28;20263;-26
2023/07/03 08:29:32;;;;;;;10.57;5.63;;;;;;;;;;5032640;28;20718;-27
2023/07/03 08:31:59;;;;;;;11.03;5.60;;;;;;;;;;5028557;28;20310;-37
2023/07/03 08:34:26;;;;;;;11.03;5.70;;;;;;;;;;5029975;28;20802;-26
2023/07/03 08:36:53;;;;;;;10.07;5.15;;;;;;;;;;5030228;28;20204;-30
2023/07/03 08:39:21;;;;;;;12.23;5.87;;;;;;;;;;5026513;28;20227;-29
2023/07/03 08:41:52;;;;;;;12.27;5.87;;;;;;;;;;5031322;28;20198;-30
2023/07/03 08:44:19;;;;;;;13.50;5.77;;;;;;;;;;5015517;28;20202;-34
2023/07/03 08:46:47;;;;;;;10.50;5.80;;;;;;;;;;5022223;28;20213;-31
2023/07/03 08:49:16;;;;;;;10.83;6.17;;;;;;;;;;5025449;28;20226;-31
2023/07/03 08:51:43;;;;;;;10.10;5.70;;;;;;;;;;5025655;28;20210;-37
2023/07/03 08:54:14;;;;;;;16.93;6.17;;;;;;;;;;5018174;28;20218;-36
2023/07/03 08:56:42;;;;;;;10.07;5.43;;;;;;;;;;5020880;28;20522;-30
2023/07/03 08:59:09;;;;;;;10.55;5.65;;;;;;;;;;5024925;28;20230;-37
2023/07/03 09:01:42;;;;;;;9.33;5.67;;;;;;;;;;5026551;28;20233;-33
2023/07/03 09:04:16;;;;;;;11.70;6.03;;;;;;;;;;5022062;28;20264;-27
2023/07/03 09:06:48;;;;;;;11.90;6.30;;;;;;;;;;5025613;28;20202;-30
2023/07/03 09:09:18;;;;;;;11.03;6.23;;;;;;;;;;5020958;28;20254;-31
2023/07/03 09:11:49;;;;;;;15.00;6.97;;;;;;;;;;5016453;28;20686;-30
2023/07/03 09:14:20;;;;;;;12.63;6.57;;;;;;;;;;5026067;28;20217;-37
2023/07/03 09:16:47;;;;;;;15.55;6.40;;;;;;;;;;5020529;28;20205;-31
2023/07/03 09:19:17;;;;;;;11.98;7.03;;;;;;;;;;5025357;28;20230;-32
2023/07/03 09:21:45;;;;;;;11.35;6.65;;;;;;;;;;5024918;28;20202;-29
2023/07/03 09:24:19;;;;;;;15.23;6.22;;;;;;;;;;5020932;28;20213;-35
2023/07/03 09:26:49;;;;;;;13.35;6.57;;;;;;;;;;5022006;28;20676;-32
2023/07/03 09:29:17;;;;;;;12.68;6.47;;;;;;;;;;5022998;28;20321;-35
2023/07/03 09:31:44;;;;;;;11.68;6.40;;;;;;;;;;5013185;28;20205;-31
2023/07/03 09:34:11;;;;;;;17.80;7.35;;;;;;;;;;5027715;28;20229;-31
2023/07/03 09:36:43;;;;;;;13.02;6.07;;;;;;;;;;5028689;28;20402;-31
2023/07/03 09:39:11;;;;;;;12.55;6.97;;;;;;;;;;5009944;28;20311;-31
2023/07/03 09:41:39;;;;;;;13.60;6.35;;;;;;;;;;5002620;28;20207;-30
2023/07/03 09:44:12;;;;;;;11.02;6.88;;;;;;;;;;5007242;28;20334;-36
2023/07/03 09:46:39;;;;;;;13.57;6.80;;;;;;;;;;5007369;28;20211;-36
2023/07/03 09:49:10;;;;;;;11.70;6.35;;;;;;;;;;4999557;28;20231;-35
2023/07/03 09:51:38;;;;;;;10.65;6.05;;;;;;;;;;5007773;28;20209;-34
2023/07/03 09:54:07;;;;;;;10.50;6.57;;;;;;;;;;5002456;28;20277;-33
2023/07/03 09:56:35;;;;;;;10.70;6.15;;;;;;;;;;4997184;28;20220;-31
2023/07/03 09:59:04;;;;;;;15.10;6.53;;;;;;;;;;5002844;28;20231;-35
2023/07/03 10:01:34;;;;;;;12.23;5.50;;;;;;;;;;5008542;28;20207;-27
2023/07/03 10:04:05;;;;;;;11.20;5.90;;;;;;;;;;5009813;28;20225;-30
2023/07/03 10:06:32;;;;;;;10.98;5.80;;;;;;;;;;5008062;28;20472;-38
2023/07/03 10:09:01;;;;;;;13.00;5.65;;;;;;;;;;5000984;28;20311;-35
2023/07/03 10:11:32;;;;;;;11.63;5.75;;;;;;;;;;5005594;28;20298;-33
2023/07/03 10:14:00;;;;;;;11.93;6.07;;;;;;;;;;5009646;28;20207;-37
2023/07/03 10:16:27;;;;;;;14.02;6.38;;;;;;;;;;5009270;28;20561;-30
2023/07/03 10:18:57;;;;;;;9.90;5.47;;;;;;;;;;5005670;28;20256;-32
2023/07/03 10:21:25;;;;;;;17.45;6.30;;;;;;;;;;5009341;28;20662;-35
2023/07/03 10:23:53;;;;;;;8.93;5.35;;;;;;;;;;5003924;28;20211;-38
2023/07/03 10:26:21;;;;;;;10.25;5.78;;;;;;;;;;4999741;28;20207;-33
2023/07/03 10:28:52;;;;;;;13.50;6.22;;;;;;;;;;5009155;28;20223;-38
2023/07/03 10:31:26;;;;;;;11.88;6.18;;;;;;;;;;5009752;28;20203;-36
2023/07/03 10:33:58;;;;;;;16.08;5.55;;;;;;;;;;5005206;28;20397;-33
2023/07/03 10:36:27;;;;;;;10.27;5.10;;;;;;;;;;5002975;28;20218;-31
2023/07/03 10:38:57;;;;;;;11.82;6.10;;;;;;;;;;5011441;28;20231;-33
2023/07/03 10:41:27;;;;;;;9.43;5.27;;;;;;;;;;5022952;28;20266;-36
2023/07/03 10:43:56;;;;;;;13.07;5.75;;;;;;;;;;5029030;28;20202;-34
2023/07/03 10:46:26;;;;;;;10.43;5.17;;;;;;;;;;5027719;28;20217;-32
2023/07/03 10:48:56;;;;;;;11.73;5.47;;;;;;;;;;5022287;28;20223;-30
2023/07/03 10:51:26;;;;;;;10.15;4.70;;;;;;;;;;5022312;28;20298;-35
2023/07/03 10:53:56;;;;;;;9.17;4.37;;;;;;;;;;5021480;28;20202;-32
2023/07/03 10:56:27;;;;;;;8.68;4.00;;;;;;;;;;5025875;28;20294;-36
2023/07/03 10:58:58;;;;;;;10.88;3.70;;;;;;;;;;5030148;28;20230;-33
2023/07/03 11:01:27;;;;;;;10.13;4.25;;;;;;;;;;5031811;28;20206;-31
2023/07/03 11:03:58;;;;;;;8.45;3.85;;;;;;;;;;5025637;28;20202;-34
2023/07/03 11:06:29;;;;;;;7.25;4.25;;;;;;;;;;5028534;28;20202;-32
2023/07/03 11:08:59;;;;;;;5.97;3.58;;;;;;;;;;5025049;28;20224;-34
2023/07/03 11:11:33;;;;;;;7.87;3.77;;;;;;;;;;5022327;28;20225;-32
2023/07/03 11:14:03;;;;;;;7.77;3.67;;;;;;;;;;5027691;28;20217;-37
2023/07/03 11:16:34;;;;;;;6.43;3.97;;;;;;;;;;5027683;28;20206;-34
2023/07/03 11:19:09;;;;;;;7.72;3.70;;;;;;;;;;5023366;28;20223;-33
2023/07/03 11:21:41;;;;;;;7.35;4.28;;;;;;;;;;5027726;28;20213;-31
2023/07/03 11:24:14;;;;;;;12.23;3.67;;;;;;;;;;5021654;28;20210;-32
2023/07/03 11:26:42;;;;;;;9.27;4.20;;;;;;;;;;5022704;28;20210;-35
2023/07/03 11:29:10;;;;;;;8.05;3.92;;;;;;;;;;5026885;28;20226;-31
2023/07/03 11:31:38;;;;;;;6.18;3.50;;;;;;;;;;5025808;28;20206;-36
2023/07/03 11:34:06;;;;;;;6.30;2.57;;;;;;;;;;5026281;28;20202;-32
2023/07/03 11:36:40;;;;;;;7.13;3.30;;;;;;;;;;5026508;28;20217;-31
2023/07/03 11:39:20;;;;;;;6.13;2.92;;;;;;;;;;5009922;28;20237;-34
2023/07/03 11:41:50;;;;;;;3.75;2.50;;;;;;;;;;5001922;28;20203;-30
2023/07/03 11:44:18;;;;;;;4.60;2.50;;;;;;;;;;5007353;28;20211;-35
2023/07/03 11:46:45;;;;;;;4.20;2.75;;;;;;;;;;5006439;28;20211;-36
2023/07/03 11:49:12;;;;;;;4.60;2.95;;;;;;;;;;4997558;28;20278;-31
2023/07/03 11:51:41;;;;;;;4.65;2.40;;;;;;;;;;5006714;28;20208;-36
2023/07/03 11:54:19;;;;;;;7.00;2.75;;;;;;;;;;5002932;28;20207;-37
2023/07/03 11:56:49;;;;;;;9.07;2.60;;;;;;;;;;4999213;28;20203;-32
2023/07/03 11:59:25;;;;;;;5.20;2.47;;;;;;;;;;5006850;28;20570;-33
2023/07/03 12:01:52;;;;;;;4.47;2.78;;;;;;;;;;5010056;28;20219;-35
2023/07/03 12:04:34;;;;;;;6.70;2.70;;;;;;;;;;5003170;28;20211;-29
2023/07/03 12:07:01;;;;;;;2.97;2.50;;;;;;;;;;5008330;28;20672;-31
2023/07/03 12:09:31;;;;;;;4.25;2.20;;;;;;;;;;5002354;28;20608;-36
2023/07/03 12:12:13;;;;;;;3.20;2.53;;;;;;;;;;5003780;28;20358;-29
2023/07/03 12:14:57;;;;;;;4.13;2.30;;;;;;;;;;5007699;28;20199;-31
2023/07/03 12:17:25;;;;;;;4.45;2.42;;;;;;;;;;5006886;28;20214;-32
2023/07/03 12:19:55;;;;;;;7.40;2.83;;;;;;;;;;5005274;28;20508;-39
2023/07/03 12:22:24;;;;;;;3.67;2.58;;;;;;;;;;5000020;28;20208;-35
2023/07/03 12:25:02;;;;;;;7.85;2.35;;;;;;;;;;5000474;28;20212;-34
2023/07/03 12:27:29;;;;;;;6.80;2.35;;;;;;;;;;5002545;28;20207;-33
2023/07/03 12:29:56;;;;;;;4.20;2.22;;;;;;;;;;5007347;28;20199;-35
2023/07/03 12:32:24;;;;;;;3.85;2.55;;;;;;;;;;5007070;28;20214;-35
2023/07/03 12:34:51;;;;;;;4.47;2.50;;;;;;;;;;5004041;28;20310;-33
2023/07/03 12:37:21;;;;;;;3.15;2.10;;;;;;;;;;5005921;28;20380;-32
2023/07/03 12:39:50;;;;;;;4.70;2.75;;;;;;;;;;4997722;28;20310;-34
2023/07/03 12:42:22;;;;;;;4.30;2.55;;;;;;;;;;5001658;28;20211;-34
2023/07/03 12:44:49;;;;;;;4.93;2.70;;;;;;;;;;5006490;28;20219;-37
2023/07/03 12:47:17;;;;;;;5.22;2.90;;;;;;;;;;5006621;28;20211;-32
2023/07/03 12:49:48;;;;;;;21.90;3.80;;;;;;;;;;5000449;28;20567;-32
2023/07/03 12:52:15;;;;;;;8.07;3.40;;;;;;;;;;5001297;28;20227;-35
2023/07/03 12:54:43;;;;;;;10.20;3.22;;;;;;;;;;4994967;28;20242;-36
2023/07/03 12:57:10;;;;;;;7.72;3.33;;;;;;;;;;5004772;28;20635;-31
2023/07/03 12:59:39;;;;;;;3.97;1.40;;;;;;;;;;5005457;28;20282;-32
2023/07/03 13:02:06;;;;;;;7.35;3.10;;;;;;;;;;5002973;28;20207;-35
2023/07/03 13:04:34;;;;;;;3.97;1.42;;;;;;;;;;4997380;28;20212;-33
2023/07/03 13:07:02;;;;;;;2.33;2.10;;;;;;;;;;5006175;28;20506;-33
2023/07/03 13:09:29;;;;;;;8.93;2.35;;;;;;;;;;5003695;28;20227;-35
2023/07/03 13:11:57;;;;;;;5.38;2.55;;;;;;;;;;5002067;28;20221;-31
2023/07/03 13:14:25;;;;;;;5.28;2.90;;;;;;;;;;5006539;28;20497;-32
2023/07/03 13:16:55;;;;;;;4.63;3.08;;;;;;;;;;5005951;28;20243;-33
2023/07/03 13:19:26;;;;;;;5.53;2.90;;;;;;;;;;4994277;28;20241;-37
2023/07/03 13:21:53;;;;;;;4.47;2.88;;;;;;;;;;5000110;28;20202;-31
2023/07/03 13:24:21;;;;;;;4.57;2.63;;;;;;;;;;5002141;28;20219;-36
2023/07/03 13:26:48;;;;;;;5.97;2.90;;;;;;;;;;5001575;28;20642;-37
2023/07/03 13:29:15;;;;;;;5.30;3.10;;;;;;;;;;5005984;28;20816;-34
2023/07/03 13:31:43;;;;;;;5.50;2.70;;;;;;;;;;5006902;28;20208;-30
2023/07/03 13:34:15;;;;;;;10.52;3.13;;;;;;;;;;5002405;28;20218;-32
2023/07/03 13:36:43;;;;;;;4.35;2.67;;;;;;;;;;4995607;28;20228;-32
2023/07/03 13:39:12;;;;;;;5.50;2.70;;;;;;;;;;5005546;28;20351;-33
2023/07/03 13:41:40;;;;;;;4.80;2.75;;;;;;;;;;5002122;28;20228;-37
2023/07/03 13:44:08;;;;;;;6.97;2.75;;;;;;;;;;5009639;28;20615;-31
2023/07/03 13:46:36;;;;;;;6.85;2.67;;;;;;;;;;5007287;28;20204;-31
2023/07/03 13:49:03;;;;;;;3.92;2.92;;;;;;;;;;5006119;28;20262;-29
2023/07/03 13:51:32;;;;;;;3.55;2.22;;;;;;;;;;5008886;28;20226;-34
2023/07/03 13:53:59;;;;;;;4.63;2.40;;;;;;;;;;5005541;28;20207;-33
2023/07/03 13:56:28;;;;;;;4.13;2.53;;;;;;;;;;5002901;28;20220;-32
2023/07/03 13:58:55;;;;;;;10.18;2.25;;;;;;;;;;5003640;28;20290;-31
2023/07/03 14:01:22;;;;;;;7.20;2.63;;;;;;;;;;5008500;28;20234;-35
2023/07/03 14:03:50;;;;;;;3.95;2.58;;;;;;;;;;5011455;28;20216;-33
2023/07/03 14:06:17;;;;;;;11.50;2.70;;;;;;;;;;5011493;28;20279;-35
2023/07/03 14:08:45;;;;;;;4.25;2.30;;;;;;;;;;5002924;28;20225;-37
2023/07/03 14:11:12;;;;;;;10.07;2.58;;;;;;;;;;5003510;28;20290;-33
2023/07/03 14:13:41;;;;;;;4.07;2.15;;;;;;;;;;5009258;28;20205;-34
2023/07/03 14:16:09;;;;;;;9.30;2.33;;;;;;;;;;5008838;28;20244;-37
2023/07/03 14:18:36;;;;;;;5.40;2.40;;;;;;;;;;5004022;28;20232;-33
2023/07/03 14:21:04;;;;;;;2.15;1.92;;;;;;;;;;5003743;28;20231;-35
2023/07/03 14:23:31;;;;;;;3.97;2.28;;;;;;;;;;5008475;28;20208;-31
2023/07/03 14:26:01;;;;;;;8.80;2.60;;;;;;;;;;4996763;28;20234;-33
2023/07/03 14:28:28;;;;;;;5.88;2.38;;;;;;;;;;5008833;28;20225;-35
2023/07/03 14:30:55;;;;;;;4.78;2.38;;;;;;;;;;5009747;28;20206;-36
2023/07/03 14:33:22;;;;;;;4.15;2.88;;;;;;;;;;5001692;28;20214;-37
2023/07/03 14:35:50;;;;;;;5.05;1.90;;;;;;;;;;5011501;28;20203;-32
2023/07/03 14:38:17;;;;;;;14.82;2.03;;;;;;;;;;5008347;28;20631;-40
2023/07/03 14:40:44;;;;;;;2.15;1.80;;;;;;;;;;5003630;28;20225;-33
2023/07/03 14:43:12;;;;;;;3.28;2.00;;;;;;;;;;5008299;28;20212;-37
2023/07/03 14:45:39;;;;;;;4.40;2.38;;;;;;;;;;5009255;28;20211;-30
2023/07/03 14:48:07;;;;;;;4.85;1.73;;;;;;;;;;5007513;28;20358;-36
2023/07/03 14:50:34;;;;;;;5.18;1.70;;;;;;;;;;5003307;28;20211;-35
2023/07/03 14:53:01;;;;;;;3.40;1.88;;;;;;;;;;5008725;28;20623;-35